Time;durP1;ratioP1;P1;durP2;ratioP2;P2;SDS_P1;SDS_P2;PMS_P1;PMS_P2;Temp;Humidity;BMP_temperature;BMP_pressure;BME280_temperature;BME280_humidity;BME280_pressure;Samples;Min_cycle;Max_cycle;Signal;HPM_P1;HPM_P2
2022/09/02 00:00:16;;;;;;;3.90;2.17;;;19.10;69.20;;;;;;2090655;28;20039;-88
2022/09/02 00:01:24;;;;;;;8.23;2.15;;;19.10;69.20;;;;;;2091539;28;20017;-88
2022/09/02 00:02:24;;;;;;;4.88;2.10;;;19.10;69.30;;;;;;2105999;28;20374;-88
2022/09/02 00:03:27;;;;;;;5.13;2.17;;;19.10;69.20;;;;;;2096582;28;20258;-86
2022/09/02 00:04:28;;;;;;;2.88;2.17;;;19.10;69.20;;;;;;2091208;28;20044;-87
2022/09/02 00:05:29;;;;;;;8.63;2.20;;;19.10;69.20;;;;;;2086379;28;20649;-87
2022/09/02 00:06:31;;;;;;;8.43;2.20;;;19.10;69.20;;;;;;2083099;28;20053;-87
2022/09/02 00:07:31;;;;;;;2.58;1.83;;;19.10;69.20;;;;;;2090644;28;20114;-87
2022/09/02 00:08:33;;;;;;;6.20;1.97;;;19.10;69.30;;;;;;2089914;28;20094;-87
2022/09/02 00:09:36;;;;;;;5.28;2.22;;;19.10;69.30;;;;;;2082638;28;20031;-87
2022/09/02 00:10:40;;;;;;;6.97;2.40;;;19.10;69.30;;;;;;2080603;28;20030;-89
2022/09/02 00:11:43;;;;;;;3.78;2.38;;;19.10;69.40;;;;;;2083972;28;20322;-87
2022/09/02 00:12:44;;;;;;;3.50;2.30;;;19.00;69.30;;;;;;2089227;28;20807;-87
2022/09/02 00:13:45;;;;;;;5.82;2.35;;;19.00;69.30;;;;;;2091148;28;20357;-87
2022/09/02 00:14:46;;;;;;;5.13;2.45;;;19.10;69.40;;;;;;2083203;28;20430;-87
2022/09/02 00:15:48;;;;;;;9.65;2.50;;;19.10;69.30;;;;;;2085438;28;20097;-87
2022/09/02 00:16:52;;;;;;;7.60;2.58;;;19.10;69.30;;;;;;2083354;28;20099;-87
2022/09/02 00:17:53;;;;;;;4.68;2.45;;;19.00;69.30;;;;;;2085915;28;20076;-88
2022/09/02 00:18:55;;;;;;;4.07;2.40;;;19.10;69.40;;;;;;2086830;28;20293;-88
2022/09/02 00:19:56;;;;;;;2.95;2.00;;;19.00;69.30;;;;;;2083447;28;20033;-87
2022/09/02 00:20:57;;;;;;;3.33;2.37;;;19.00;69.20;;;;;;2089354;28;20110;-87
2022/09/02 00:21:59;;;;;;;3.88;2.20;;;19.10;69.40;;;;;;2099610;28;20025;-87
2022/09/02 00:23:00;;;;;;;6.30;2.45;;;19.10;69.40;;;;;;2082961;28;20151;-87
2022/09/02 00:24:03;;;;;;;8.07;2.40;;;19.10;69.40;;;;;;2088427;28;20262;-87
2022/09/02 00:25:04;;;;;;;3.70;2.58;;;19.10;69.40;;;;;;2083835;28;20049;-87
2022/09/02 00:26:05;;;;;;;5.53;2.67;;;19.10;69.40;;;;;;2091509;28;20320;-87
2022/09/02 00:27:06;;;;;;;8.73;2.80;;;19.10;69.40;;;;;;2092157;28;20033;-88
2022/09/02 00:28:07;;;;;;;6.47;2.60;;;19.10;69.50;;;;;;2091484;28;20025;-87
2022/09/02 00:29:09;;;;;;;5.17;2.93;;;19.10;69.40;;;;;;2107308;28;20103;-88
2022/09/02 00:30:11;;;;;;;6.43;2.90;;;19.10;69.50;;;;;;2099769;28;20032;-88
2022/09/02 00:31:12;;;;;;;5.45;2.53;;;19.10;69.50;;;;;;2104682;28;20020;-88
2022/09/02 00:32:13;;;;;;;5.90;3.10;;;19.10;69.50;;;;;;2090565;28;20489;-89
2022/09/02 00:33:14;;;;;;;7.53;3.33;;;19.10;69.50;;;;;;2089444;28;20029;-88
2022/09/02 00:34:15;;;;;;;6.90;3.17;;;19.10;69.50;;;;;;2091287;28;20052;-88
2022/09/02 00:35:16;;;;;;;7.40;2.83;;;19.10;69.50;;;;;;2082722;28;20068;-88
2022/09/02 00:36:16;;;;;;;7.03;3.03;;;19.10;69.50;;;;;;2082415;28;20071;-88
2022/09/02 00:37:17;;;;;;;5.30;2.80;;;19.10;69.50;;;;;;2082344;28;20117;-88
2022/09/02 00:38:18;;;;;;;4.40;3.10;;;19.10;69.50;;;;;;2080959;28;20030;-87
2022/09/02 00:39:19;;;;;;;6.23;3.00;;;19.10;69.60;;;;;;2080085;28;20041;-88
2022/09/02 00:40:22;;;;;;;5.93;3.03;;;19.10;69.60;;;;;;2091538;28;20362;-88
2022/09/02 00:41:25;;;;;;;4.72;3.00;;;19.10;69.60;;;;;;2088284;28;20063;-88
2022/09/02 00:42:26;;;;;;;3.00;2.63;;;19.10;69.60;;;;;;2082893;28;20274;-87
2022/09/02 00:43:50;;;;;;;7.05;3.25;;;19.10;69.60;;;;;;2097883;28;20273;-88
2022/09/02 00:44:52;;;;;;;3.45;2.70;;;19.10;69.60;;;;;;2091296;28;20025;-86
2022/09/02 00:45:54;;;;;;;7.57;3.53;;;19.00;69.60;;;;;;2092809;28;20316;-87
2022/09/02 00:46:55;;;;;;;4.80;2.75;;;19.00;69.60;;;;;;2084462;28;20057;-87
2022/09/02 00:47:56;;;;;;;14.27;3.80;;;19.00;69.60;;;;;;2076033;28;20729;-87
2022/09/02 00:49:13;;;;;;;5.28;3.05;;;19.00;69.70;;;;;;2074169;28;20041;-87
2022/09/02 00:50:17;;;;;;;5.13;3.03;;;19.00;69.70;;;;;;2087439;28;20171;-87
2022/09/02 00:51:17;;;;;;;4.25;2.95;;;19.00;69.70;;;;;;2091461;28;20292;-88
2022/09/02 00:52:36;;;;;;;6.53;3.00;;;19.00;69.70;;;;;;2099481;28;20269;-88
2022/09/02 00:55:44;;;;;;;6.18;3.28;;;19.10;69.70;;;;;;2107038;28;20304;-88
2022/09/02 00:56:46;;;;;;;5.20;3.08;;;19.00;70.00;;;;;;2091966;28;20407;-87
2022/09/02 00:57:56;;;;;;;4.30;3.20;;;19.00;70.10;;;;;;2091333;28;20262;-87
2022/09/02 00:58:59;;;;;;;6.82;3.28;;;19.00;70.30;;;;;;2093527;28;20032;-88
2022/09/02 01:00:11;;;;;;;7.05;3.70;;;19.00;70.40;;;;;;2092673;28;20347;-87
2022/09/02 01:01:12;;;;;;;;;;;18.90;70.60;;;;;;2094866;28;20261;-89
2022/09/02 01:02:13;;;;;;;8.50;3.42;;;18.90;70.70;;;;;;2090342;28;19905;-88
2022/09/02 01:03:17;;;;;;;7.25;3.67;;;18.90;70.90;;;;;;2099033;28;20121;-87
2022/09/02 01:04:18;;;;;;;4.22;3.58;;;18.90;71.00;;;;;;2091325;28;20432;-88
2022/09/02 01:05:20;;;;;;;5.68;3.63;;;18.90;71.20;;;;;;2086234;28;20345;-87
2022/09/02 01:06:26;;;;;;;6.45;3.50;;;18.80;71.10;;;;;;2091149;28;20035;-88
2022/09/02 01:07:30;;;;;;;5.35;3.75;;;18.80;71.10;;;;;;2096009;28;20807;-87
2022/09/02 01:08:35;;;;;;;4.72;3.38;;;18.90;71.20;;;;;;2081884;28;20278;-87
2022/09/02 01:09:36;;;;;;;4.47;3.17;;;18.90;71.20;;;;;;2089723;28;20320;-87
2022/09/02 01:10:37;;;;;;;5.20;4.10;;;18.90;71.20;;;;;;2096030;28;20745;-87
2022/09/02 01:11:43;;;;;;;5.13;3.53;;;18.90;71.20;;;;;;2090982;28;20052;-88
2022/09/02 01:12:55;;;;;;;7.22;3.65;;;18.90;71.30;;;;;;2091929;28;20447;-87
2022/09/02 01:13:56;;;;;;;6.20;3.40;;;18.90;71.20;;;;;;2090882;28;20261;-87
2022/09/02 01:14:57;;;;;;;6.68;4.03;;;18.90;71.20;;;;;;2082978;28;20655;-87
2022/09/02 01:16:22;;;;;;;5.30;3.40;;;18.90;71.30;;;;;;2088233;28;20027;-87
2022/09/02 01:17:25;;;;;;;7.38;3.65;;;18.90;71.10;;;;;;2086719;28;20035;-87
2022/09/02 01:18:29;;;;;;;5.93;3.33;;;18.90;71.30;;;;;;2082826;28;20741;-87
2022/09/02 01:19:39;;;;;;;5.97;3.78;;;18.90;71.30;;;;;;2092116;28;20341;-87
2022/09/02 01:20:41;;;;;;;6.57;3.40;;;18.90;71.40;;;;;;2100348;28;20577;-87
2022/09/02 01:21:49;;;;;;;;;;;18.90;71.40;;;;;;2091301;28;20257;-87
2022/09/02 01:22:51;;;;;;;5.10;3.50;;;18.90;71.40;;;;;;2085731;28;19918;-87
2022/09/02 01:23:52;;;;;;;7.20;3.83;;;18.90;71.50;;;;;;2090816;28;20277;-87
2022/09/02 01:24:56;;;;;;;5.97;3.75;;;18.90;71.50;;;;;;2088562;28;20029;-87
2022/09/02 01:25:57;;;;;;;8.32;3.92;;;18.90;71.50;;;;;;2098655;28;20402;-88
2022/09/02 01:26:59;;;;;;;7.63;4.05;;;18.90;71.60;;;;;;2099254;28;20332;-87
2022/09/02 01:28:07;;;;;;;6.90;4.22;;;18.90;71.60;;;;;;2091212;28;20025;-88
2022/09/02 01:29:08;;;;;;;5.97;4.10;;;18.90;71.70;;;;;;2083740;28;20104;-88
2022/09/02 01:30:12;;;;;;;7.05;3.83;;;18.90;71.80;;;;;;2082768;28;20270;-88
2022/09/02 01:31:13;;;;;;;5.07;3.58;;;18.90;71.70;;;;;;2075591;28;20061;-88
2022/09/02 01:32:15;;;;;;;7.78;3.85;;;18.90;71.70;;;;;;2077834;28;20294;-87
2022/09/02 01:33:17;;;;;;;5.17;3.93;;;18.90;71.90;;;;;;2082844;28;20045;-87
2022/09/02 01:34:18;;;;;;;5.05;3.47;;;18.80;71.80;;;;;;2082764;28;20120;-87
2022/09/02 01:35:19;;;;;;;7.32;4.18;;;18.90;72.00;;;;;;2082911;28;20336;-88
2022/09/02 01:36:20;;;;;;;11.37;3.77;;;18.80;71.90;;;;;;2082091;28;20060;-88
2022/09/02 01:37:22;;;;;;;7.10;3.47;;;18.80;72.00;;;;;;2085547;28;20278;-88
2022/09/02 01:38:24;;;;;;;7.50;4.32;;;18.90;72.00;;;;;;2091095;28;20100;-88
2022/09/02 01:39:24;;;;;;;8.35;3.72;;;18.90;72.10;;;;;;2090993;28;20107;-87
2022/09/02 01:40:27;;;;;;;5.80;4.17;;;18.90;72.10;;;;;;2090806;28;20025;-87
2022/09/02 01:41:28;;;;;;;4.90;3.78;;;18.90;72.10;;;;;;2091122;28;20450;-87
2022/09/02 01:42:29;;;;;;;8.27;4.40;;;18.90;72.00;;;;;;2090086;28;20312;-87
2022/09/02 01:43:31;;;;;;;7.13;4.15;;;18.90;72.00;;;;;;2082789;28;20495;-87
2022/09/02 01:44:37;;;;;;;5.20;3.85;;;18.90;72.00;;;;;;2082770;28;20044;-88
2022/09/02 01:45:39;;;;;;;7.50;4.13;;;18.90;71.90;;;;;;2085083;28;20033;-87
2022/09/02 01:46:40;;;;;;;6.60;3.92;;;18.90;71.90;;;;;;2091037;28;20845;-87
2022/09/02 01:47:41;;;;;;;6.20;3.67;;;18.90;71.90;;;;;;2090766;28;20130;-88
2022/09/02 01:48:42;;;;;;;10.03;3.87;;;18.90;71.90;;;;;;2082629;28;20025;-88
2022/09/02 01:49:42;;;;;;;6.93;4.07;;;18.90;71.80;;;;;;2089536;28;20033;-88
2022/09/02 01:50:50;;;;;;;5.70;3.22;;;18.90;71.80;;;;;;2092077;28;20371;-87
2022/09/02 01:51:54;;;;;;;5.47;3.90;;;18.90;71.80;;;;;;2099151;28;20281;-87
2022/09/02 01:52:55;;;;;;;5.93;3.75;;;19.00;71.90;;;;;;2087113;28;20262;-87
2022/09/02 01:53:56;;;;;;;6.13;3.22;;;18.90;71.70;;;;;;2082321;28;20281;-87
2022/09/02 01:54:56;;;;;;;7.87;3.80;;;18.90;71.70;;;;;;2089830;28;20098;-88
2022/09/02 01:55:58;;;;;;;6.07;3.80;;;18.90;71.80;;;;;;2096636;28;20021;-88
2022/09/02 01:56:59;;;;;;;7.60;3.92;;;18.90;71.90;;;;;;2091098;28;20507;-87
2022/09/02 01:58:00;;;;;;;9.05;4.03;;;18.90;72.00;;;;;;2090777;28;20060;-88
2022/09/02 01:59:01;;;;;;;6.55;3.65;;;18.90;72.00;;;;;;2091198;28;20017;-88
2022/09/02 02:00:05;;;;;;;5.05;3.70;;;18.90;71.90;;;;;;2098993;28;20073;-87
2022/09/02 02:01:13;;;;;;;6.78;3.70;;;18.90;72.00;;;;;;2100488;28;20086;-88
2022/09/02 02:02:17;;;;;;;7.55;3.90;;;18.90;72.20;;;;;;2098408;28;20317;-87
2022/09/02 02:03:18;;;;;;;7.80;3.75;;;18.90;72.30;;;;;;2084961;28;20116;-87
2022/09/02 02:04:21;;;;;;;6.47;3.65;;;18.90;72.40;;;;;;2083036;28;20267;-87
2022/09/02 02:05:22;;;;;;;5.68;3.85;;;18.90;72.50;;;;;;2090956;28;20052;-87
2022/09/02 02:06:25;;;;;;;6.63;3.85;;;18.90;72.40;;;;;;2086125;28;20306;-87
2022/09/02 02:07:26;;;;;;;;;;;18.90;72.40;;;;;;2083492;28;20267;-88
2022/09/02 02:08:27;;;;;;;4.50;3.45;;;18.90;72.40;;;;;;2088997;28;19962;-87
2022/09/02 02:09:29;;;;;;;5.93;3.58;;;18.90;72.40;;;;;;2081781;28;20526;-88
2022/09/02 02:10:30;;;;;;;6.97;3.70;;;18.90;72.40;;;;;;2082636;28;20061;-87
2022/09/02 02:11:31;;;;;;;5.35;3.60;;;18.90;72.40;;;;;;2082391;28;20341;-88
2022/09/02 02:12:33;;;;;;;4.55;3.58;;;18.90;72.40;;;;;;2090928;28;20470;-87
2022/09/02 02:13:37;;;;;;;8.10;3.67;;;18.90;72.40;;;;;;2084176;28;20285;-88
2022/09/02 02:14:38;;;;;;;7.80;3.80;;;18.90;72.40;;;;;;2077284;28;20626;-87
2022/09/02 02:15:41;;;;;;;8.90;3.50;;;18.90;72.50;;;;;;2091664;28;20052;-88
2022/09/02 02:16:42;;;;;;;6.63;3.67;;;18.90;72.40;;;;;;2094649;28;20104;-88
2022/09/02 02:17:43;;;;;;;5.80;4.15;;;18.90;72.40;;;;;;2082449;28;20275;-86
2022/09/02 02:18:43;;;;;;;8.32;4.05;;;18.90;72.40;;;;;;2089229;28;20021;-88
2022/09/02 02:19:44;;;;;;;5.27;4.07;;;18.90;72.30;;;;;;2097515;28;20029;-87
2022/09/02 02:20:45;;;;;;;9.47;4.10;;;18.90;72.40;;;;;;2090838;28;20078;-87
2022/09/02 02:21:46;;;;;;;4.85;3.78;;;18.90;72.40;;;;;;2103342;28;20433;-86
2022/09/02 02:22:47;;;;;;;4.73;3.53;;;18.90;72.40;;;;;;2098299;28;20561;-88
2022/09/02 02:23:48;;;;;;;7.13;3.60;;;18.90;72.40;;;;;;2090565;28;20032;-87
2022/09/02 02:24:49;;;;;;;5.13;3.67;;;18.90;72.40;;;;;;2089738;28;20103;-86
2022/09/02 02:25:50;;;;;;;7.33;3.73;;;18.90;72.40;;;;;;2090939;28;20036;-87
2022/09/02 02:26:51;;;;;;;7.25;3.80;;;18.90;72.30;;;;;;2090700;28;20052;-87
2022/09/02 02:27:54;;;;;;;6.65;3.55;;;18.90;72.50;;;;;;2082945;28;20036;-87
2022/09/02 02:28:55;;;;;;;6.40;3.90;;;18.90;72.60;;;;;;2095759;28;20253;-88
2022/09/02 02:29:56;;;;;;;7.10;3.73;;;18.80;72.70;;;;;;2090690;28;20068;-88
2022/09/02 02:30:59;;;;;;;4.57;3.63;;;18.80;73.00;;;;;;2083907;28;20029;-87
2022/09/02 02:32:00;;;;;;;6.47;3.63;;;18.80;73.00;;;;;;2079416;28;20032;-88
2022/09/02 02:33:01;;;;;;;6.18;3.78;;;18.80;73.10;;;;;;2075956;28;20267;-87
2022/09/02 02:34:02;;;;;;;5.93;3.80;;;18.80;73.20;;;;;;2081808;28;20029;-88
2022/09/02 02:35:04;;;;;;;8.45;3.45;;;18.80;73.10;;;;;;2084254;28;20704;-88
2022/09/02 02:36:07;;;;;;;10.05;3.72;;;18.80;73.20;;;;;;2084039;28;20029;-88
2022/09/02 02:37:11;;;;;;;6.30;3.83;;;18.80;73.20;;;;;;2088863;28;20259;-88
2022/09/02 02:38:11;;;;;;;8.80;3.25;;;18.70;73.30;;;;;;2092526;28;20028;-88
2022/09/02 02:39:12;;;;;;;7.43;3.80;;;18.80;73.30;;;;;;2083924;28;20277;-88
2022/09/02 02:40:14;;;;;;;5.20;3.73;;;18.80;73.30;;;;;;2085128;28;20021;-88
2022/09/02 02:41:15;;;;;;;7.15;4.10;;;18.80;73.20;;;;;;2092284;28;20029;-88
2022/09/02 02:42:16;;;;;;;4.57;3.80;;;18.80;73.20;;;;;;2087060;28;20116;-87
2022/09/02 02:43:17;;;;;;;9.70;3.97;;;18.80;73.30;;;;;;2084030;28;20083;-87
2022/09/02 02:44:18;;;;;;;6.87;3.50;;;18.80;73.20;;;;;;2090392;28;20020;-88
2022/09/02 02:45:20;;;;;;;6.40;3.80;;;18.80;73.00;;;;;;2093129;28;20056;-87
2022/09/02 02:46:21;;;;;;;8.18;4.15;;;18.80;73.10;;;;;;2092238;28;20040;-88
2022/09/02 02:47:22;;;;;;;7.10;3.85;;;18.80;73.20;;;;;;2087819;28;20265;-87
2022/09/02 02:48:23;;;;;;;6.25;3.78;;;18.80;73.00;;;;;;2100573;28;20040;-87
2022/09/02 02:49:25;;;;;;;7.03;4.00;;;18.80;73.10;;;;;;2099709;28;20020;-87
2022/09/02 02:50:26;;;;;;;5.57;3.85;;;18.80;73.00;;;;;;2093249;28;20056;-87
2022/09/02 02:51:27;;;;;;;5.15;3.70;;;18.80;73.00;;;;;;2092174;28;20742;-87
2022/09/02 02:52:29;;;;;;;9.45;4.10;;;18.80;73.00;;;;;;2084094;28;20021;-87
2022/09/02 02:53:30;;;;;;;6.77;3.80;;;18.80;73.00;;;;;;2083969;28;20120;-88
2022/09/02 02:54:31;;;;;;;5.03;3.28;;;18.80;72.90;;;;;;2077321;28;20036;-89
2022/09/02 02:55:34;;;;;;;8.70;3.22;;;18.80;72.80;;;;;;2091644;28;20055;-87
2022/09/02 02:56:35;;;;;;;6.35;3.28;;;18.80;72.80;;;;;;2092190;28;20135;-87
2022/09/02 02:57:38;;;;;;;6.10;3.90;;;18.80;72.80;;;;;;2088159;28;20093;-87
2022/09/02 02:58:41;;;;;;;8.73;3.90;;;18.80;72.90;;;;;;2100337;28;20016;-88
2022/09/02 02:59:42;;;;;;;7.75;3.83;;;18.80;73.00;;;;;;2091426;28;20337;-88
2022/09/02 03:00:46;;;;;;;8.38;3.60;;;18.80;72.90;;;;;;2092375;28;20040;-87
2022/09/02 03:01:48;;;;;;;6.13;3.63;;;18.80;72.90;;;;;;2091992;28;20266;-87
2022/09/02 03:02:57;;;;;;;6.30;3.60;;;18.80;72.90;;;;;;2080425;28;20267;-87
2022/09/02 03:03:58;;;;;;;6.75;3.65;;;18.80;72.90;;;;;;2094337;28;20033;-88
2022/09/02 03:05:00;;;;;;;6.55;3.72;;;18.80;72.80;;;;;;2100350;28;20257;-88
2022/09/02 03:06:01;;;;;;;7.25;3.70;;;18.80;72.90;;;;;;2092306;28;20055;-87
2022/09/02 03:07:06;;;;;;;;;;;18.80;72.90;;;;;;2092540;28;20025;-87
2022/09/02 03:08:09;;;;;;;9.25;3.40;;;18.80;73.00;;;;;;2084446;28;19967;-88
2022/09/02 03:09:10;;;;;;;5.32;3.28;;;18.80;72.90;;;;;;2083651;28;20258;-87
2022/09/02 03:10:12;;;;;;;4.72;3.30;;;18.80;73.00;;;;;;2100498;28;20257;-87
2022/09/02 03:11:16;;;;;;;5.60;3.33;;;18.80;73.00;;;;;;2087801;28;20030;-87
2022/09/02 03:12:17;;;;;;;6.60;3.33;;;18.80;72.90;;;;;;2075823;28;20327;-87
2022/09/02 03:13:18;;;;;;;5.78;3.10;;;18.80;73.00;;;;;;2092017;28;20266;-87
2022/09/02 03:14:19;;;;;;;6.05;3.28;;;18.80;73.00;;;;;;2091961;28;20108;-87
2022/09/02 03:15:20;;;;;;;5.57;3.00;;;18.80;73.00;;;;;;2083754;28;20025;-87
2022/09/02 03:16:25;;;;;;;7.65;3.28;;;18.80;73.10;;;;;;2088476;28;20040;-87
2022/09/02 03:17:27;;;;;;;5.88;3.22;;;18.80;73.10;;;;;;2084663;28;20258;-88
2022/09/02 03:18:29;;;;;;;8.60;3.55;;;18.80;73.20;;;;;;2092229;28;20273;-87
2022/09/02 03:19:31;;;;;;;7.30;3.35;;;18.70;73.30;;;;;;2084104;28;20034;-88
2022/09/02 03:20:33;;;;;;;8.90;3.47;;;18.70;73.30;;;;;;2084271;28;20282;-88
2022/09/02 03:21:37;;;;;;;8.70;3.33;;;18.80;73.30;;;;;;2090087;28;20443;-87
2022/09/02 03:22:38;;;;;;;4.47;2.90;;;18.70;73.20;;;;;;2091697;28;20262;-87
2022/09/02 03:23:42;;;;;;;7.22;3.17;;;18.80;73.20;;;;;;2092305;28;20025;-88
2022/09/02 03:24:43;;;;;;;5.13;3.10;;;18.80;73.20;;;;;;2087626;28;20589;-88
2022/09/02 03:25:45;;;;;;;6.50;3.25;;;18.70;73.20;;;;;;2091860;28;20328;-88
2022/09/02 03:26:54;;;;;;;7.18;3.20;;;18.70;73.20;;;;;;2096394;28;20046;-87
2022/09/02 03:27:55;;;;;;;5.35;3.15;;;18.70;73.10;;;;;;2091968;28;20756;-88
2022/09/02 03:28:56;;;;;;;5.60;3.38;;;18.70;73.20;;;;;;2089469;28;20025;-87
2022/09/02 03:29:58;;;;;;;5.37;3.33;;;18.70;73.20;;;;;;2091863;28;20460;-88
2022/09/02 03:30:59;;;;;;;4.82;3.03;;;18.70;73.20;;;;;;2083811;28;20475;-88
2022/09/02 03:32:00;;;;;;;7.65;2.90;;;18.70;73.20;;;;;;2092061;28;20073;-87
2022/09/02 03:33:06;;;;;;;7.95;3.30;;;18.70;73.30;;;;;;2091978;28;20458;-88
2022/09/02 03:34:07;;;;;;;5.30;3.03;;;18.70;73.20;;;;;;2090987;28;20274;-88
2022/09/02 03:35:17;;;;;;;6.43;2.88;;;18.70;73.30;;;;;;2090613;28;20735;-88
2022/09/02 03:36:37;;;;;;;6.47;2.95;;;18.70;73.20;;;;;;2091047;28;20029;-88
2022/09/02 03:37:39;;;;;;;5.70;2.60;;;18.70;73.20;;;;;;2093970;28;20266;-87
2022/09/02 03:38:40;;;;;;;6.38;2.92;;;18.70;73.20;;;;;;2100117;28;20253;-88
2022/09/02 03:39:40;;;;;;;5.40;3.27;;;18.70;73.30;;;;;;2091793;28;20029;-87
2022/09/02 03:40:41;;;;;;;10.20;3.33;;;18.70;73.30;;;;;;2083357;28;20079;-87
2022/09/02 03:41:42;;;;;;;6.23;3.53;;;18.70;73.30;;;;;;2083764;28;20053;-87
2022/09/02 03:42:44;;;;;;;;;;;18.70;73.50;;;;;;2091315;28;20061;-88
2022/09/02 03:43:45;;;;;;;3.95;2.35;;;18.70;73.20;;;;;;2093759;28;20274;-87
2022/09/02 03:44:47;;;;;;;7.28;3.15;;;18.70;73.30;;;;;;2084022;28;20072;-88
2022/09/02 03:45:48;;;;;;;7.75;2.72;;;18.70;73.40;;;;;;2100193;28;20257;-87
2022/09/02 03:46:49;;;;;;;6.32;3.05;;;18.70;73.40;;;;;;2091589;28;20258;-88
2022/09/02 03:47:52;;;;;;;7.70;2.70;;;18.70;73.40;;;;;;2091572;28;20044;-88
2022/09/02 03:48:55;;;;;;;6.82;2.58;;;18.60;73.50;;;;;;2077482;28;20030;-88
2022/09/02 03:49:56;;;;;;;4.32;2.70;;;18.60;73.60;;;;;;2091886;28;20269;-87
2022/09/02 03:50:57;;;;;;;6.43;2.95;;;18.60;73.60;;;;;;2091685;28;20543;-88
2022/09/02 03:51:57;;;;;;;7.20;2.80;;;18.60;73.60;;;;;;2083571;28;20037;-87
2022/09/02 03:52:59;;;;;;;8.37;2.70;;;18.60;73.50;;;;;;2090974;28;20025;-87
2022/09/02 03:54:02;;;;;;;;;;;18.60;73.50;;;;;;2100403;28;20032;-88
2022/09/02 03:55:04;;;;;;;3.13;2.55;;;18.60;73.50;;;;;;2091992;28;19935;-87
2022/09/02 03:56:07;;;;;;;4.47;3.17;;;18.60;73.50;;;;;;2091202;28;20269;-88
2022/09/02 03:57:09;;;;;;;5.05;2.78;;;18.60;73.50;;;;;;2092068;28;20029;-88
2022/09/02 03:58:11;;;;;;;4.20;2.88;;;18.60;73.60;;;;;;2075757;28;20271;-88
2022/09/02 03:59:12;;;;;;;7.13;2.53;;;18.60;73.60;;;;;;2085481;28;20072;-88
2022/09/02 04:00:16;;;;;;;9.00;3.33;;;18.60;73.60;;;;;;2083707;28;20044;-88
2022/09/02 04:01:23;;;;;;;6.13;3.00;;;18.60;73.80;;;;;;2092347;28;20387;-88
2022/09/02 04:02:25;;;;;;;10.80;3.03;;;18.60;73.80;;;;;;2092669;28;20274;-88
2022/09/02 04:03:26;;;;;;;7.45;3.17;;;18.60;73.80;;;;;;2091622;28;20337;-88
2022/09/02 04:04:28;;;;;;;5.25;2.80;;;18.60;73.70;;;;;;2096171;28;20044;-88
2022/09/02 04:05:29;;;;;;;4.53;2.50;;;18.60;73.70;;;;;;2091726;28;20036;-88
2022/09/02 04:06:33;;;;;;;6.53;2.72;;;18.60;73.70;;;;;;2098570;28;20031;-87
2022/09/02 04:07:35;;;;;;;7.07;2.65;;;18.60;73.70;;;;;;2090849;28;20320;-88
2022/09/02 04:08:36;;;;;;;6.10;2.90;;;18.60;73.70;;;;;;2091766;28;20265;-88
2022/09/02 04:09:37;;;;;;;6.30;2.90;;;18.60;73.70;;;;;;2099027;28;20024;-88
2022/09/02 04:10:38;;;;;;;5.33;2.93;;;18.60;73.70;;;;;;2091601;28;20509;-88
2022/09/02 04:11:42;;;;;;;5.10;2.70;;;18.60;73.70;;;;;;2091362;28;20077;-88
2022/09/02 04:12:43;;;;;;;5.38;3.03;;;18.60;73.80;;;;;;2091969;28;20274;-88
2022/09/02 04:13:46;;;;;;;4.28;2.83;;;18.60;73.60;;;;;;2100017;28;20289;-88
2022/09/02 04:14:49;;;;;;;7.95;2.90;;;18.60;73.70;;;;;;2092166;28;20104;-88
2022/09/02 04:15:52;;;;;;;7.18;3.28;;;18.60;73.70;;;;;;2083233;28;20289;-87
2022/09/02 04:16:56;;;;;;;3.65;2.78;;;18.60;73.70;;;;;;2092469;28;20265;-88
2022/09/02 04:17:58;;;;;;;6.70;2.80;;;18.60;73.70;;;;;;2108083;28;20260;-87
2022/09/02 04:19:00;;;;;;;5.90;3.00;;;18.60;73.70;;;;;;2091504;28;20033;-88
2022/09/02 04:20:03;;;;;;;5.28;2.97;;;18.60;73.70;;;;;;2086195;28;20018;-87
2022/09/02 04:21:07;;;;;;;7.97;3.15;;;18.60;73.70;;;;;;2099667;28;20269;-87
2022/09/02 04:22:09;;;;;;;5.57;3.15;;;18.60;73.80;;;;;;2083476;28;20270;-86
2022/09/02 04:23:12;;;;;;;5.75;3.08;;;18.60;73.70;;;;;;2091002;28;20591;-88
2022/09/02 04:24:14;;;;;;;4.03;2.60;;;18.60;73.90;;;;;;2091135;28;20276;-87
2022/09/02 04:25:19;;;;;;;6.65;3.05;;;18.60;73.90;;;;;;2091212;28;20277;-88
2022/09/02 04:26:21;;;;;;;3.40;2.50;;;18.60;73.90;;;;;;2091613;28;20254;-88
2022/09/02 04:27:26;;;;;;;6.05;2.88;;;18.50;73.80;;;;;;2090972;28;20087;-88
2022/09/02 04:28:29;;;;;;;4.80;2.63;;;18.60;73.80;;;;;;2075912;28;20300;-88
2022/09/02 04:29:31;;;;;;;6.55;3.15;;;18.60;73.90;;;;;;2077360;28;20640;-88
2022/09/02 04:30:32;;;;;;;6.97;2.83;;;18.60;73.90;;;;;;2083452;28;20128;-87
2022/09/02 04:31:34;;;;;;;6.25;2.72;;;18.60;73.80;;;;;;2091515;28;20277;-88
2022/09/02 04:32:36;;;;;;;7.82;2.88;;;18.60;73.90;;;;;;2091684;28;20033;-89
2022/09/02 04:33:39;;;;;;;6.18;2.95;;;18.50;74.00;;;;;;2085963;28;20266;-88
2022/09/02 04:34:45;;;;;;;3.83;2.50;;;18.50;73.90;;;;;;2084540;28;20275;-87
2022/09/02 04:35:48;;;;;;;7.78;2.80;;;18.60;74.00;;;;;;2088788;28;20258;-88
2022/09/02 04:36:51;;;;;;;7.22;2.70;;;18.50;73.90;;;;;;2099966;28;20466;-88
2022/09/02 04:37:53;;;;;;;5.32;2.60;;;18.50;74.70;;;;;;2091649;28;20262;-88
2022/09/02 04:38:56;;;;;;;8.98;3.08;;;18.50;73.90;;;;;;2095621;28;20249;-88
2022/09/02 04:40:00;;;;;;;5.68;2.55;;;18.50;73.90;;;;;;2099641;28;20111;-88
2022/09/02 04:41:09;;;;;;;9.80;2.75;;;18.50;74.00;;;;;;2091243;28;20724;-88
2022/09/02 04:42:10;;;;;;;6.05;2.85;;;18.50;73.90;;;;;;2091293;28;20029;-88
2022/09/02 04:43:11;;;;;;;8.02;2.92;;;18.50;74.00;;;;;;2090584;28;20266;-87
2022/09/02 04:44:12;;;;;;;4.43;2.78;;;18.50;74.00;;;;;;2099364;28;20029;-87
2022/09/02 04:45:16;;;;;;;6.47;2.70;;;18.50;74.00;;;;;;2083924;28;20415;-88
2022/09/02 04:46:18;;;;;;;6.22;2.75;;;18.50;74.00;;;;;;2083583;28;20267;-87
2022/09/02 04:47:20;;;;;;;4.35;3.00;;;18.50;74.10;;;;;;2086720;28;20021;-89
2022/09/02 04:48:21;;;;;;;5.93;2.75;;;18.50;74.00;;;;;;2091359;28;20048;-88
2022/09/02 04:49:22;;;;;;;;;;;18.50;74.00;;;;;;2076577;28;20041;-87
2022/09/02 04:50:26;;;;;;;4.18;2.60;;;18.60;74.10;;;;;;2083388;28;19905;-88
2022/09/02 04:51:34;;;;;;;6.95;2.60;;;18.60;74.20;;;;;;2077014;28;20271;-88
2022/09/02 04:52:37;;;;;;;5.93;3.05;;;18.50;74.20;;;;;;2092567;28;20250;-88
2022/09/02 04:53:39;;;;;;;7.47;2.95;;;18.50;74.10;;;;;;2090650;28;20596;-88
2022/09/02 04:54:40;;;;;;;;;;;18.60;74.10;;;;;;2083614;28;20026;-88
2022/09/02 04:55:42;;;;;;;9.48;2.60;;;18.50;74.10;;;;;;2082262;28;19909;-87
2022/09/02 04:56:45;;;;;;;10.98;3.03;;;18.50;74.70;;;;;;2092175;28;20800;-87
2022/09/02 04:57:46;;;;;;;5.30;3.03;;;18.50;74.10;;;;;;2091236;28;20246;-87
2022/09/02 04:58:50;;;;;;;;;;;18.50;74.10;;;;;;2091894;28;20033;-89
2022/09/02 04:59:53;;;;;;;6.30;2.70;;;18.50;74.20;;;;;;2083361;28;20282;-87
2022/09/02 05:00:54;;;;;;;5.00;3.13;;;18.50;74.20;;;;;;2089504;28;20336;-88
2022/09/02 05:01:55;;;;;;;6.25;2.85;;;18.50;74.30;;;;;;2091092;28;20126;-89
2022/09/02 05:03:00;;;;;;;7.10;3.13;;;18.50;74.30;;;;;;2091618;28;20364;-88
2022/09/02 05:04:08;;;;;;;6.32;3.22;;;18.50;74.30;;;;;;2099281;28;20265;-88
2022/09/02 05:05:13;;;;;;;5.30;2.97;;;18.50;74.40;;;;;;2092939;28;20270;-87
2022/09/02 05:06:18;;;;;;;7.53;3.28;;;18.50;74.30;;;;;;2084007;28;20281;-87
2022/09/02 05:07:19;;;;;;;5.43;2.85;;;18.50;74.40;;;;;;2091901;28;20033;-87
2022/09/02 05:08:22;;;;;;;6.78;3.20;;;18.50;74.40;;;;;;2091524;28;20263;-87
2022/09/02 05:09:25;;;;;;;7.72;3.25;;;18.50;74.40;;;;;;2086140;28;20358;-87
2022/09/02 05:10:31;;;;;;;7.63;3.60;;;18.50;74.30;;;;;;2076440;28;20768;-87
2022/09/02 05:11:34;;;;;;;6.55;3.10;;;18.50;74.40;;;;;;2081686;28;20755;-87
2022/09/02 05:12:35;;;;;;;5.15;3.00;;;18.50;74.40;;;;;;2084606;28;20756;-87
2022/09/02 05:13:36;;;;;;;11.30;3.67;;;18.50;74.30;;;;;;2090949;28;20055;-88
2022/09/02 05:14:37;;;;;;;8.38;3.20;;;18.50;74.40;;;;;;2086834;28;20044;-87
2022/09/02 05:15:42;;;;;;;7.97;3.35;;;18.40;74.30;;;;;;2090807;28;20033;-87
2022/09/02 05:16:44;;;;;;;7.85;3.25;;;18.50;74.40;;;;;;2091695;28;20359;-87
2022/09/02 05:17:48;;;;;;;8.05;3.15;;;18.40;74.40;;;;;;2091428;28;20254;-87
2022/09/02 05:18:51;;;;;;;7.18;2.83;;;18.40;74.50;;;;;;2081685;28;20263;-87
2022/09/02 05:19:53;;;;;;;6.60;2.95;;;18.40;74.50;;;;;;2083482;28;20091;-86
2022/09/02 05:20:55;;;;;;;;;;;18.40;74.50;;;;;;2092037;28;20249;-87
2022/09/02 05:21:57;;;;;;;4.78;2.75;;;18.40;74.50;;;;;;2091181;28;19966;-88
2022/09/02 05:23:07;;;;;;;7.00;2.80;;;18.40;74.50;;;;;;2099966;28;20024;-87
2022/09/02 05:24:09;;;;;;;5.10;3.38;;;18.40;74.40;;;;;;2085811;28;20455;-87
2022/09/02 05:25:11;;;;;;;5.35;3.50;;;18.40;74.40;;;;;;2090694;28;20479;-88
2022/09/02 05:26:13;;;;;;;5.72;3.08;;;18.40;74.50;;;;;;2097675;28;20253;-88
2022/09/02 05:27:15;;;;;;;5.53;2.88;;;18.40;74.50;;;;;;2090926;28;20028;-86
2022/09/02 05:28:16;;;;;;;5.05;3.00;;;18.40;74.50;;;;;;2082202;28;20081;-87